Time;durP1;ratioP1;P1;durP2;ratioP2;P2;SDS_P1;SDS_P2;PMS_P1;PMS_P2;Temp;Humidity;BMP_temperature;BMP_pressure;BME280_temperature;BME280_humidity;BME280_pressure;Samples;Min_cycle;Max_cycle;Signal;HPM_P1;HPM_P2
2022/03/18 00:01:41;;;;;;;7.30;5.32;;;;;;;8.82;68.55;102149.19;5029185;28;20545;-80
2022/03/18 00:04:06;;;;;;;8.20;4.97;;;;;;;8.84;68.45;102141.72;5029874;28;20411;-80
2022/03/18 00:06:32;;;;;;;13.65;5.55;;;;;;;8.73;68.39;102146.78;5029241;28;20471;-80
2022/03/18 00:08:57;;;;;;;12.23;5.60;;;;;;;8.71;68.92;102155.09;5032420;28;20403;-80
2022/03/18 00:11:22;;;;;;;8.48;4.82;;;;;;;8.72;68.70;102155.94;5034554;28;20421;-80
2022/03/18 00:13:48;;;;;;;8.17;5.40;;;;;;;8.76;68.62;102151.81;5034445;28;20387;-80
2022/03/18 00:16:13;;;;;;;9.43;5.40;;;;;;;8.67;68.95;102153.81;5034118;28;20488;-80
2022/03/18 00:18:38;;;;;;;9.47;5.10;;;;;;;8.69;68.61;102148.22;5032483;28;20407;-80
2022/03/18 00:21:06;;;;;;;7.40;4.50;;;;;;;8.70;68.32;102153.41;5034097;28;21003;-80
2022/03/18 00:23:32;;;;;;;10.98;5.07;;;;;;;8.69;68.75;102150.94;5063781;28;20411;-80
2022/03/18 00:25:57;;;;;;;7.87;4.50;;;;;;;8.70;68.75;102150.72;5033808;28;20402;-80
2022/03/18 00:28:22;;;;;;;12.67;4.97;;;;;;;8.76;68.73;102149.94;5034192;28;20391;-80
2022/03/18 00:30:48;;;;;;;10.10;5.03;;;;;;;8.72;68.37;102158.66;5032630;28;20441;-80
2022/03/18 00:33:14;;;;;;;12.10;4.25;;;;;;;8.61;68.91;102154.56;5027355;28;20768;-80
2022/03/18 00:35:39;;;;;;;8.10;4.77;;;;;;;8.65;68.55;102166.69;5028734;28;20415;-80
2022/03/18 00:38:05;;;;;;;8.32;4.78;;;;;;;8.69;68.84;102165.25;5032799;28;20492;-80
2022/03/18 00:40:31;;;;;;;11.97;4.30;;;;;;;8.72;68.97;102166.75;5032397;28;20486;-80
2022/03/18 00:42:56;;;;;;;10.63;5.00;;;;;;;8.67;68.61;102156.50;5033963;28;20417;-80
2022/03/18 00:45:22;;;;;;;8.90;4.10;;;;;;;8.61;68.63;102168.09;5031837;28;20917;-80
2022/03/18 00:53:15;;;;;;;9.65;4.63;;;;;;;8.60;68.68;102165.56;5029152;28;20461;-80
2022/03/18 00:55:40;;;;;;;12.20;4.82;;;;;;;8.64;68.54;102165.00;5029170;28;20414;-80
2022/03/18 00:58:05;;;;;;;10.13;4.47;;;;;;;8.66;68.95;102167.53;5033724;28;20461;-80
2022/03/18 01:00:30;;;;;;;11.97;5.23;;;;;;;8.61;68.64;102170.78;5033410;28;20403;-80
2022/03/18 01:02:56;;;;;;;10.50;5.20;;;;;;;8.57;68.93;102171.34;5031909;28;20407;-80
2022/03/18 01:05:21;;;;;;;7.93;4.57;;;;;;;8.57;68.98;102163.25;5031818;28;20472;-80
2022/03/18 01:07:46;;;;;;;9.60;5.10;;;;;;;8.54;68.73;102167.16;5030965;28;20418;-80
2022/03/18 01:10:12;;;;;;;13.87;5.10;;;;;;;8.55;68.63;102174.25;5063534;28;20968;-80
2022/03/18 01:12:37;;;;;;;12.77;5.00;;;;;;;8.53;68.44;102168.19;5064310;28;20441;-80
2022/03/18 01:15:03;;;;;;;6.60;4.37;;;;;;;8.39;68.94;102171.78;5032765;28;20445;-80
2022/03/18 01:17:28;;;;;;;12.52;5.30;;;;;;;8.36;69.39;102177.56;5032685;28;20430;-80
2022/03/18 01:19:53;;;;;;;8.85;4.70;;;;;;;8.38;68.80;102169.25;5032115;28;20395;-81
2022/03/18 01:22:19;;;;;;;13.07;4.83;;;;;;;8.36;68.76;102165.91;5030513;28;20410;-80
2022/03/18 01:24:44;;;;;;;9.80;4.65;;;;;;;8.45;68.53;102170.19;5032699;28;20442;-80
2022/03/18 01:27:09;;;;;;;12.50;4.80;;;;;;;8.42;68.89;102165.16;5032980;28;20399;-80
2022/03/18 01:29:34;;;;;;;10.57;4.88;;;;;;;8.42;68.72;102168.69;5031701;28;20419;-80
2022/03/18 01:32:00;;;;;;;12.50;4.83;;;;;;;8.44;68.56;102174.75;5035919;28;20410;-80
2022/03/18 01:34:25;;;;;;;7.50;4.67;;;;;;;8.47;68.34;102173.50;5027181;28;20423;-80
2022/03/18 01:36:51;;;;;;;10.43;4.90;;;;;;;8.39;68.68;102173.63;5024975;28;20409;-80
2022/03/18 01:39:17;;;;;;;10.95;4.65;;;;;;;8.39;68.52;102170.94;5030776;28;20976;-80
2022/03/18 01:41:42;;;;;;;11.52;4.45;;;;;;;8.42;68.36;102170.56;5019644;28;20454;-80
2022/03/18 01:44:12;;;;;;;9.70;4.47;;;;;;;8.48;68.85;102173.34;5046331;28;20395;-80
2022/03/18 01:46:38;;;;;;;10.90;4.15;;;;;;;8.52;68.89;102177.34;5031945;28;20399;-80
2022/03/18 01:49:07;;;;;;;14.30;4.80;;;;;;;8.42;69.23;102176.81;5032196;28;20943;-80
2022/03/18 01:51:34;;;;;;;7.70;3.90;;;;;;;8.41;68.50;102175.13;5031251;28;20975;-80
2022/03/18 01:56:43;;;;;;;11.15;4.82;;;;;;;8.37;68.60;102173.81;5028210;28;20398;-80
2022/03/18 01:59:08;;;;;;;9.43;4.22;;;;;;;8.26;68.57;102171.59;5032096;28;20391;-81
2022/03/18 02:01:34;;;;;;;8.63;4.50;;;;;;;8.28;68.84;102172.25;5063643;28;20412;-80
2022/03/18 02:04:00;;;;;;;11.37;4.60;;;;;;;8.33;69.01;102176.06;5032172;28;20395;-80
2022/03/18 02:06:25;;;;;;;14.63;4.63;;;;;;;8.26;68.19;102174.28;5031314;28;20391;-80
2022/03/18 02:08:50;;;;;;;9.40;4.18;;;;;;;8.26;69.15;102180.53;5029091;28;20548;-80
2022/03/18 02:11:16;;;;;;;10.57;4.43;;;;;;;8.27;68.21;102178.63;5032168;28;20415;-80
2022/03/18 02:13:41;;;;;;;10.43;5.07;;;;;;;8.31;68.77;102179.97;5029927;28;20857;-80
2022/03/18 02:16:06;;;;;;;11.40;4.90;;;;;;;8.36;68.32;102182.97;5031732;28;20417;-81
2022/03/18 02:18:31;;;;;;;10.30;4.60;;;;;;;8.29;67.95;102182.03;5032367;28;20398;-80
2022/03/18 02:20:57;;;;;;;10.37;4.63;;;;;;;8.32;68.09;102187.91;5031485;28;20415;-81
2022/03/18 02:23:22;;;;;;;11.67;5.60;;;;;;;8.26;68.52;102185.09;5029640;28;20417;-80
2022/03/18 02:25:48;;;;;;;11.60;4.10;;;;;;;8.25;68.34;102183.41;5031825;28;20732;-80
2022/03/18 02:28:13;;;;;;;10.67;4.63;;;;;;;8.21;68.17;102192.91;5031992;28;20395;-80
2022/03/18 02:30:38;;;;;;;14.50;4.77;;;;;;;8.15;68.93;102199.06;5030755;28;20785;-80
2022/03/18 02:33:04;;;;;;;11.53;4.87;;;;;;;8.13;69.42;102199.25;5031149;28;20398;-80
2022/03/18 02:35:30;;;;;;;10.20;4.80;;;;;;;8.16;69.34;102192.63;5031331;28;20759;-80
2022/03/18 02:38:00;;;;;;;8.37;5.03;;;;;;;8.02;69.29;102193.47;5030579;28;20415;-80
2022/03/18 02:40:26;;;;;;;13.80;4.80;;;;;;;8.13;68.78;102193.00;5031666;28;20422;-80
2022/03/18 02:42:52;;;;;;;9.40;4.32;;;;;;;8.16;69.03;102198.03;5026880;28;20487;-80
2022/03/18 02:45:17;;;;;;;10.65;4.63;;;;;;;8.18;68.55;102193.28;5026029;28;20820;-80
2022/03/18 02:47:43;;;;;;;12.68;4.65;;;;;;;8.13;69.01;102193.84;5062537;28;20423;-80
2022/03/18 02:50:08;;;;;;;10.77;4.83;;;;;;;8.13;69.47;102195.72;5020896;28;20423;-80
2022/03/18 02:52:34;;;;;;;8.07;4.67;;;;;;;8.12;68.86;102189.47;5025821;28;20397;-80
2022/03/18 02:54:59;;;;;;;12.80;5.60;;;;;;;8.12;67.70;102191.31;5030512;28;20708;-80
2022/03/18 02:57:25;;;;;;;9.02;5.63;;;;;;;8.02;68.82;102196.16;5031134;28;20399;-80
2022/03/18 02:59:50;;;;;;;9.88;5.45;;;;;;;8.04;69.20;102202.19;5031609;28;20758;-80
2022/03/18 03:02:15;;;;;;;12.20;5.27;;;;;;;8.06;68.53;102198.31;5021403;28;20404;-81
2022/03/18 03:07:59;;;;;;;9.75;5.07;;;;;;;8.16;68.99;102198.03;5028759;28;20415;-80
2022/03/18 03:10:11;;;;;;;11.18;5.22;;;;;;;8.22;68.30;102202.69;5030743;28;20406;-80
2022/03/18 03:12:37;;;;;;;12.10;4.72;;;;;;;8.22;68.36;102206.22;5031356;28;20395;-80
2022/03/18 03:15:03;;;;;;;10.13;4.65;;;;;;;8.22;68.28;102213.50;5063449;28;20387;-80
2022/03/18 03:17:28;;;;;;;11.43;4.50;;;;;;;8.17;67.44;102214.03;5062656;28;20433;-80
2022/03/18 03:19:54;;;;;;;9.33;4.87;;;;;;;8.14;68.18;102213.56;5031348;28;20419;-80
2022/03/18 03:22:20;;;;;;;8.70;4.82;;;;;;;8.19;68.12;102213.88;5030537;28;20813;-80
2022/03/18 03:24:45;;;;;;;14.43;5.53;;;;;;;8.13;68.41;102212.75;5029653;28;20449;-80
2022/03/18 03:27:10;;;;;;;15.60;5.20;;;;;;;8.10;68.67;102207.69;5030548;28;20493;-80
2022/03/18 03:29:35;;;;;;;10.20;4.87;;;;;;;8.15;68.41;102217.94;5029799;28;20890;-80
2022/03/18 03:32:01;;;;;;;16.07;6.00;;;;;;;8.18;67.91;102225.69;5029346;28;20423;-80
2022/03/18 03:34:26;;;;;;;8.40;4.57;;;;;;;8.11;68.47;102230.13;5056807;28;20418;-80
2022/03/18 03:36:52;;;;;;;10.60;5.10;;;;;;;8.04;68.47;102227.34;5030879;28;20461;-80
2022/03/18 03:39:17;;;;;;;13.10;4.82;;;;;;;8.08;68.49;102228.66;5027180;28;20411;-80
2022/03/18 03:41:42;;;;;;;16.20;4.93;;;;;;;8.19;68.24;102230.91;5031355;28;20413;-80
2022/03/18 03:44:08;;;;;;;16.45;4.78;;;;;;;8.20;67.74;102237.16;5034171;28;20395;-80
2022/03/18 03:46:34;;;;;;;13.37;6.63;;;;;;;8.19;68.58;102243.56;5034372;28;20403;-80
2022/03/18 03:48:59;;;;;;;8.87;4.10;;;;;;;8.09;68.15;102238.44;5033164;28;20766;-80
2022/03/18 03:51:25;;;;;;;15.27;5.73;;;;;;;8.12;68.42;102238.06;5034725;28;20422;-80
2022/03/18 03:53:50;;;;;;;11.77;5.90;;;;;;;8.12;68.40;102242.63;5033628;28;20896;-80
2022/03/18 03:56:15;;;;;;;10.10;4.90;;;;;;;8.07;68.52;102245.03;5029169;28;20459;-80
2022/03/18 03:58:41;;;;;;;8.87;5.03;;;;;;;8.11;68.45;102247.19;5021435;28;20415;-80
2022/03/18 04:01:06;;;;;;;10.20;5.43;;;;;;;8.11;68.00;102252.59;5040679;28;20407;-80
2022/03/18 04:03:32;;;;;;;10.13;4.80;;;;;;;8.07;68.38;102247.72;5022872;28;20791;-80
2022/03/18 04:05:57;;;;;;;10.30;5.18;;;;;;;8.07;68.43;102261.22;5034218;28;20406;-80
2022/03/18 04:08:23;;;;;;;10.77;5.77;;;;;;;8.05;67.95;102260.59;5033715;28;20907;-80
2022/03/18 04:10:48;;;;;;;8.23;4.60;;;;;;;8.05;68.23;102258.72;5033210;28;20426;-80
2022/03/18 04:13:13;;;;;;;9.33;5.47;;;;;;;8.02;68.45;102274.47;5034593;28;20379;-80
2022/03/18 04:15:39;;;;;;;10.70;5.47;;;;;;;8.01;68.61;102270.91;5029183;28;20438;-80
2022/03/18 04:18:04;;;;;;;10.98;5.22;;;;;;;8.03;68.36;102266.19;5034435;28;20402;-80
2022/03/18 04:20:30;;;;;;;7.00;4.70;;;;;;;8.10;67.95;102285.19;5033958;28;20427;-80
2022/03/18 04:22:55;;;;;;;12.15;5.35;;;;;;;8.10;67.52;102283.31;5033609;28;20943;-80
2022/03/18 04:25:21;;;;;;;13.17;5.30;;;;;;;8.03;67.94;102278.84;5032960;28;20530;-80
2022/03/18 04:27:46;;;;;;;13.17;5.87;;;;;;;8.07;68.40;102286.38;5033967;28;20449;-80
2022/03/18 04:30:13;;;;;;;10.40;5.83;;;;;;;8.04;68.41;102288.59;5031393;28;20415;-81
2022/03/18 04:32:39;;;;;;;10.10;5.22;;;;;;;8.09;68.01;102294.31;5034064;28;20403;-80
2022/03/18 04:35:05;;;;;;;11.47;5.37;;;;;;;8.09;68.83;102297.00;5030856;28;20888;-80
2022/03/18 04:37:31;;;;;;;11.60;5.40;;;;;;;8.06;68.39;102295.53;5024179;28;20735;-80
2022/03/18 04:39:56;;;;;;;16.77;5.70;;;;;;;7.98;69.06;102287.47;5033068;28;20400;-80
2022/03/18 04:42:22;;;;;;;11.10;5.47;;;;;;;7.98;68.77;102301.00;5034021;28;20898;-80
2022/03/18 04:44:47;;;;;;;9.05;5.38;;;;;;;7.92;68.29;102299.03;5065685;28;20399;-80
2022/03/18 04:47:13;;;;;;;9.57;4.80;;;;;;;7.87;68.90;102308.69;5065562;28;20406;-80
2022/03/18 04:49:38;;;;;;;9.60;5.40;;;;;;;7.95;68.69;102306.75;5033686;28;20418;-80
2022/03/18 04:52:04;;;;;;;12.40;5.43;;;;;;;7.87;68.46;102308.69;5032795;28;20450;-80
2022/03/18 04:54:29;;;;;;;16.17;5.60;;;;;;;7.93;69.25;102305.25;5033346;28;20906;-80
2022/03/18 04:59:40;;;;;;;12.07;5.83;;;;;;;7.91;68.96;102305.44;5032386;28;20456;-80
2022/03/18 05:02:06;;;;;;;11.43;5.40;;;;;;;7.96;69.01;102308.44;5031041;28;20748;-80
2022/03/18 05:04:34;;;;;;;14.05;5.25;;;;;;;8.04;68.66;102312.91;5032019;28;20407;-80
2022/03/18 05:06:59;;;;;;;12.90;5.40;;;;;;;8.09;68.78;102315.91;5024000;28;20490;-81
2022/03/18 05:09:25;;;;;;;9.40;4.80;;;;;;;8.08;68.13;102304.25;5031341;28;20544;-81
2022/03/18 05:11:51;;;;;;;13.80;6.00;;;;;;;7.97;68.72;102322.78;5029761;28;20420;-81
2022/03/18 05:14:16;;;;;;;12.57;5.15;;;;;;;7.92;68.48;102322.47;5029120;28;20383;-80
2022/03/18 05:16:42;;;;;;;10.53;5.50;;;;;;;7.94;68.71;102320.41;5029123;28;20411;-80
2022/03/18 05:19:09;;;;;;;15.38;5.45;;;;;;;7.84;68.44;102324.22;5030403;28;20415;-80
2022/03/18 05:21:34;;;;;;;9.63;4.88;;;;;;;7.83;68.44;102324.41;5030112;28;20437;-81
2022/03/18 05:24:00;;;;;;;14.73;5.33;;;;;;;7.86;68.85;102334.84;5027111;28;20408;-81
2022/03/18 05:26:25;;;;;;;15.07;4.83;;;;;;;7.88;68.69;102327.41;5039679;28;20426;-80
2022/03/18 05:28:50;;;;;;;15.70;6.03;;;;;;;7.87;68.51;102335.69;5032785;28;20752;-80
2022/03/18 05:31:15;;;;;;;13.77;5.57;;;;;;;7.81;68.87;102346.19;5029758;28;20814;-81
2022/03/18 05:33:41;;;;;;;13.77;5.13;;;;;;;7.79;68.60;102350.09;5030457;28;20453;-82
2022/03/18 05:36:06;;;;;;;10.83;5.50;;;;;;;7.81;68.46;102351.56;5027363;28;20415;-80
2022/03/18 05:38:32;;;;;;;11.18;5.88;;;;;;;7.83;68.31;102354.09;5033403;28;20383;-81
2022/03/18 05:40:57;;;;;;;11.87;5.83;;;;;;;7.82;67.71;102357.81;5030039;28;20419;-81
2022/03/18 05:43:22;;;;;;;14.03;6.10;;;;;;;7.84;68.38;102363.88;5030386;28;20411;-82
2022/03/18 05:45:48;;;;;;;15.27;5.77;;;;;;;7.90;68.08;102362.31;5032088;28;20498;-82
2022/03/18 05:48:13;;;;;;;14.93;5.40;;;;;;;7.87;67.82;102368.09;5031105;28;20407;-83
2022/03/18 05:50:39;;;;;;;18.30;5.87;;;;;;;7.79;68.88;102368.97;5030551;28;20454;-81
2022/03/18 05:53:04;;;;;;;11.43;5.43;;;;;;;7.77;67.92;102365.63;5029093;28;20445;-81
2022/03/18 05:58:17;;;;;;;11.98;5.20;;;;;;;7.64;69.08;102371.59;5027438;28;20460;-80
2022/03/18 06:00:43;;;;;;;13.57;5.43;;;;;;;7.77;68.76;102368.34;5027420;28;20491;-80
2022/03/18 06:03:09;;;;;;;14.77;5.53;;;;;;;7.78;68.86;102376.22;5023536;28;20410;-80
2022/03/18 06:05:34;;;;;;;15.80;5.63;;;;;;;7.80;68.76;102374.19;5030801;28;20411;-80
2022/03/18 06:11:48;;;;;;;12.20;5.70;;;;;;;7.87;68.85;102371.59;5028879;28;20760;-80
2022/03/18 06:13:29;;;;;;;11.88;5.95;;;;;;;7.77;68.55;102374.53;5024212;28;20439;-79
2022/03/18 06:15:54;;;;;;;10.97;5.83;;;;;;;7.77;68.33;102382.63;5029120;28;20391;-81
2022/03/18 06:18:19;;;;;;;14.50;5.97;;;;;;;7.79;68.57;102371.69;5029224;28;20414;-81
2022/03/18 06:20:52;;;;;;;13.03;6.57;;;;;;;7.86;68.72;102379.88;5027547;28;20756;-79
2022/03/18 06:23:17;;;;;;;13.30;6.18;;;;;;;7.90;68.46;102382.06;5028911;28;20930;-79
2022/03/18 06:25:43;;;;;;;13.68;5.65;;;;;;;7.96;68.41;102383.19;5029322;28;20403;-78
2022/03/18 06:28:09;;;;;;;13.97;6.20;;;;;;;7.88;68.24;102384.09;5030286;28;20399;-78
2022/03/18 06:30:34;;;;;;;16.88;6.20;;;;;;;7.87;68.56;102385.09;5029110;28;20966;-78
2022/03/18 06:33:00;;;;;;;12.20;7.00;;;;;;;7.92;68.53;102389.97;5027741;28;20509;-79
2022/03/18 06:35:25;;;;;;;11.13;5.87;;;;;;;7.84;68.78;102397.09;5060305;28;20701;-78
2022/03/18 06:37:51;;;;;;;14.83;6.30;;;;;;;7.87;68.21;102398.59;5025391;28;20411;-79
2022/03/18 06:40:16;;;;;;;14.48;6.15;;;;;;;7.94;68.48;102393.31;5029875;28;20762;-79
2022/03/18 06:42:41;;;;;;;13.50;6.77;;;;;;;8.11;67.81;102408.38;5027982;28;20416;-78
2022/03/18 06:45:07;;;;;;;13.33;6.47;;;;;;;8.19;67.23;102408.31;5031225;28;20491;-78
2022/03/18 06:47:32;;;;;;;13.00;6.13;;;;;;;8.19;67.44;102411.84;5043961;28;20413;-79
2022/03/18 06:49:58;;;;;;;12.10;6.63;;;;;;;8.18;67.92;102412.88;5061703;28;20494;-80
2022/03/18 06:52:24;;;;;;;14.53;6.50;;;;;;;8.22;68.07;102418.75;5024304;28;20413;-79
2022/03/18 06:54:50;;;;;;;12.55;6.28;;;;;;;8.18;68.12;102415.56;5030327;28;20754;-79
2022/03/18 06:57:16;;;;;;;14.70;6.77;;;;;;;8.22;68.20;102416.91;5026155;28;20407;-78
2022/03/18 06:59:41;;;;;;;15.63;7.13;;;;;;;8.13;68.04;102420.69;5023276;28;20748;-79
2022/03/18 07:02:06;;;;;;;12.77;6.95;;;;;;;7.96;68.11;102421.84;5031396;28;20441;-79
2022/03/18 07:04:32;;;;;;;16.20;6.47;;;;;;;7.94;68.83;102429.25;5021386;28;20791;-79
2022/03/18 07:06:57;;;;;;;17.30;7.35;;;;;;;8.05;68.26;102428.00;5031123;28;20426;-78
2022/03/18 07:09:22;;;;;;;17.77;7.47;;;;;;;8.09;68.55;102430.16;5031128;28;20395;-78
2022/03/18 07:11:47;;;;;;;15.40;7.63;;;;;;;8.15;68.60;102428.59;5029785;28;20426;-79
2022/03/18 07:14:13;;;;;;;14.33;7.17;;;;;;;8.16;68.45;102428.44;5031678;28;20387;-78
2022/03/18 07:19:22;;;;;;;13.52;6.95;;;;;;;8.31;66.95;102431.19;5026378;28;20417;-78
2022/03/18 07:21:47;;;;;;;11.20;6.90;;;;;;;8.24;67.75;102436.44;5031967;28;20403;-78
2022/03/18 07:24:12;;;;;;;10.88;6.22;;;;;;;8.35;67.86;102432.50;5035169;28;20444;-79
2022/03/18 07:26:38;;;;;;;14.13;6.83;;;;;;;8.48;67.36;102448.09;5035084;28;20419;-79
2022/03/18 07:29:05;;;;;;;8.63;5.88;;;;;;;8.50;67.11;102440.63;5032344;28;21061;-79
2022/03/18 07:31:30;;;;;;;12.77;6.13;;;;;;;8.55;67.53;102443.66;5030866;28;20424;-79
2022/03/18 07:33:55;;;;;;;12.17;7.13;;;;;;;8.55;66.79;102449.06;5035218;28;20387;-80
2022/03/18 07:36:23;;;;;;;8.93;6.30;;;;;;;8.63;66.37;102440.84;5033027;28;20402;-80
2022/03/18 07:38:48;;;;;;;11.57;6.53;;;;;;;8.57;67.30;102450.53;5029655;28;20464;-77
2022/03/18 07:41:13;;;;;;;14.07;7.20;;;;;;;8.59;67.30;102444.97;5028270;28;20482;-78
2022/03/18 07:43:39;;;;;;;15.80;6.80;;;;;;;8.58;66.04;102444.13;5030391;28;20407;-78
2022/03/18 07:46:07;;;;;;;14.60;6.47;;;;;;;8.61;66.66;102443.75;5034467;28;20399;-77
2022/03/18 07:48:32;;;;;;;14.13;6.88;;;;;;;8.60;66.83;102455.56;5030224;28;20418;-78
2022/03/18 07:50:58;;;;;;;15.23;6.97;;;;;;;8.66;66.46;102462.13;5026475;28;20419;-78
2022/03/18 07:53:23;;;;;;;15.17;7.03;;;;;;;8.81;66.08;102463.81;5026815;28;20952;-78
2022/03/18 07:55:49;;;;;;;15.18;7.05;;;;;;;8.77;65.37;102458.97;5032848;28;20407;-78
2022/03/18 07:58:14;;;;;;;15.13;7.03;;;;;;;8.62;66.13;102467.06;5033003;28;20395;-78
2022/03/18 08:00:40;;;;;;;12.77;7.17;;;;;;;8.56;66.33;102465.06;5031642;28;20406;-78
2022/03/18 08:03:05;;;;;;;17.07;7.27;;;;;;;8.52;66.30;102468.34;5033835;28;20403;-78
2022/03/18 08:05:31;;;;;;;14.23;7.10;;;;;;;8.54;66.92;102472.53;5034130;28;20395;-78
2022/03/18 08:07:57;;;;;;;15.83;7.47;;;;;;;8.54;66.95;102474.38;5028138;28;20427;-78
2022/03/18 08:10:23;;;;;;;15.90;7.65;;;;;;;8.66;66.70;102479.16;5030758;28;20407;-77
2022/03/18 08:12:49;;;;;;;15.07;7.22;;;;;;;8.68;66.38;102474.44;5036052;28;20426;-77
2022/03/18 08:15:15;;;;;;;17.85;7.68;;;;;;;8.65;66.83;102472.09;5034347;28;21063;-78
2022/03/18 08:17:42;;;;;;;18.38;7.10;;;;;;;8.70;66.18;102476.94;5034125;28;20391;-78
2022/03/18 08:20:09;;;;;;;16.48;7.18;;;;;;;8.84;66.32;102482.38;5029151;28;20418;-78
2022/03/18 08:22:35;;;;;;;16.38;6.95;;;;;;;8.91;65.31;102487.88;5024728;28;20423;-78
2022/03/18 08:25:01;;;;;;;13.38;6.80;;;;;;;8.86;65.48;102487.59;5034184;28;20830;-78
2022/03/18 08:27:27;;;;;;;17.67;7.13;;;;;;;8.78;65.10;102495.78;5028602;28;20533;-78
2022/03/18 08:29:57;;;;;;;15.97;7.00;;;;;;;8.79;65.38;102492.06;5033265;28;20403;-80
2022/03/18 08:32:24;;;;;;;12.05;7.57;;;;;;;8.77;65.86;102486.84;5029495;28;20434;-78
2022/03/18 08:34:50;;;;;;;11.48;7.55;;;;;;;8.61;66.40;102499.66;5029432;28;20499;-79
2022/03/18 08:37:55;;;;;;;16.67;7.70;;;;;;;8.68;66.22;102497.91;5033484;28;20495;-78
2022/03/18 08:40:00;;;;;;;14.90;7.75;;;;;;;8.78;66.39;102493.94;5029595;28;20399;-78
2022/03/18 08:42:25;;;;;;;16.57;7.90;;;;;;;8.66;66.18;102500.78;5032312;28;20433;-78
2022/03/18 08:44:50;;;;;;;13.60;7.90;;;;;;;8.66;66.55;102499.97;5031958;28;20395;-79
2022/03/18 08:47:16;;;;;;;17.40;7.73;;;;;;;8.60;66.48;102506.91;5026894;28;20414;-80
2022/03/18 08:49:41;;;;;;;12.90;7.53;;;;;;;8.61;66.39;102497.81;5030982;28;20782;-76
2022/03/18 08:52:06;;;;;;;14.47;7.40;;;;;;;8.78;66.48;102507.44;5033412;28;20464;-81
2022/03/18 08:54:32;;;;;;;17.23;7.60;;;;;;;8.92;65.71;102496.84;5024642;28;20485;-79
2022/03/18 08:56:57;;;;;;;18.13;7.83;;;;;;;9.01;65.48;102506.53;5026856;28;20419;-80
2022/03/18 08:59:23;;;;;;;16.77;8.30;;;;;;;9.13;65.15;102514.00;5033397;28;20839;-79
2022/03/18 09:01:48;;;;;;;18.10;8.32;;;;;;;9.15;64.93;102511.97;5032658;28;20396;-80
2022/03/18 09:04:14;;;;;;;15.37;8.40;;;;;;;9.13;64.86;102507.75;5033157;28;20917;-78
2022/03/18 09:06:39;;;;;;;14.83;7.80;;;;;;;9.08;64.64;102510.19;5029226;28;20513;-79
2022/03/18 09:09:05;;;;;;;15.50;8.47;;;;;;;9.29;64.74;102512.97;5032570;28;20497;-81
2022/03/18 09:11:30;;;;;;;12.03;8.43;;;;;;;9.42;64.51;102509.66;5031386;28;20428;-80
2022/03/18 09:13:55;;;;;;;15.00;7.47;;;;;;;9.53;63.84;102509.16;5025322;28;20405;-77
2022/03/18 09:16:20;;;;;;;19.10;8.57;;;;;;;9.65;63.41;102510.38;5030191;28;20401;-78
2022/03/18 09:18:46;;;;;;;18.67;8.13;;;;;;;9.73;62.86;102510.25;5032644;28;20407;-78
2022/03/18 09:21:11;;;;;;;16.17;8.10;;;;;;;9.55;63.47;102510.63;5021400;28;24758;-79
2022/03/18 09:23:37;;;;;;;17.83;8.43;;;;;;;9.47;64.41;102516.16;5027660;28;20415;-78
2022/03/18 09:26:03;;;;;;;15.60;8.60;;;;;;;9.58;64.13;102522.97;5026282;28;20766;-78
2022/03/18 09:28:28;;;;;;;17.30;8.40;;;;;;;9.71;63.82;102515.88;5017408;28;20461;-78
2022/03/18 09:30:54;;;;;;;17.40;9.33;;;;;;;9.75;63.40;102519.00;5031081;28;20418;-79
2022/03/18 09:33:19;;;;;;;15.60;8.97;;;;;;;9.84;63.04;102520.59;5032356;28;20403;-79
2022/03/18 09:35:44;;;;;;;13.20;8.40;;;;;;;9.91;63.10;102514.22;5029831;28;20403;-79
2022/03/18 09:38:10;;;;;;;14.83;8.53;;;;;;;10.21;62.33;102515.00;5031666;28;20399;-78
2022/03/18 09:40:37;;;;;;;18.57;8.40;;;;;;;10.36;61.41;102517.66;5027308;28;20415;-78
2022/03/18 09:43:07;;;;;;;13.32;8.73;;;;;;;10.38;61.53;102516.44;5021679;28;20491;-78
2022/03/18 09:45:35;;;;;;;15.17;7.90;;;;;;;10.39;61.72;102514.56;5026931;28;20436;-79
2022/03/18 09:48:04;;;;;;;14.85;8.05;;;;;;;10.52;61.34;102519.25;5031561;28;20895;-78
2022/03/18 09:50:29;;;;;;;15.13;8.65;;;;;;;10.70;60.98;102525.88;5035177;28;20407;-76
2022/03/18 09:52:56;;;;;;;14.73;7.85;;;;;;;10.64;61.01;102521.25;5030495;28;20403;-78
2022/03/18 09:55:21;;;;;;;17.70;8.57;;;;;;;10.77;60.71;102529.50;5028824;28;20407;-79
2022/03/18 09:57:46;;;;;;;19.30;9.88;;;;;;;10.60;61.01;102528.13;5029946;28;20409;-80
2022/03/18 10:00:12;;;;;;;14.97;8.57;;;;;;;10.49;61.27;102523.22;5029084;28;20489;-80
2022/03/18 10:02:38;;;;;;;15.43;9.33;;;;;;;10.29;61.86;102519.47;5031556;28;21017;-78
2022/03/18 10:05:14;;;;;;;16.23;8.73;;;;;;;10.37;61.75;102522.88;5032088;28;20754;-79
2022/03/18 10:07:51;;;;;;;14.38;8.77;;;;;;;10.56;61.77;102525.97;5031994;28;20445;-79
2022/03/18 10:10:17;;;;;;;18.70;9.40;;;;;;;10.64;61.29;102523.13;5031732;28;20407;-79
2022/03/18 10:12:47;;;;;;;17.83;10.48;;;;;;;10.69;61.09;102526.09;5032093;28;20470;-78
2022/03/18 10:15:28;;;;;;;18.83;10.15;;;;;;;10.62;61.52;102517.91;5031610;28;20391;-78
2022/03/18 10:17:58;;;;;;;22.60;10.80;;;;;;;10.83;61.40;102519.75;5029633;28;20866;-78
2022/03/18 10:20:35;;;;;;;17.90;12.40;;;;;;;10.78;61.00;102519.50;5029466;28;20395;-78
2022/03/18 10:23:09;;;;;;;21.13;13.77;;;;;;;10.81;61.30;102519.09;5028985;28;20422;-76
2022/03/18 10:25:38;;;;;;;19.90;14.90;;;;;;;10.82;60.58;102513.50;5026379;28;20494;-81
2022/03/18 10:28:09;;;;;;;21.08;15.27;;;;;;;10.91;60.63;102511.47;5041320;28;20479;-79
2022/03/18 10:30:35;;;;;;;24.75;16.35;;;;;;;10.89;60.61;102510.81;5024291;28;20927;-77
2022/03/18 10:33:01;;;;;;;24.83;17.97;;;;;;;11.21;60.11;102515.66;5028163;28;20489;-77
2022/03/18 10:38:46;;;;;;;22.83;17.00;;;;;;;12.80;55.52;102515.13;5031397;28;20456;-77
2022/03/18 10:41:23;;;;;;;23.30;17.15;;;;;;;12.47;55.35;102515.09;5031656;28;21000;-78
2022/03/18 10:43:53;;;;;;;27.83;18.38;;;;;;;11.91;57.31;102520.00;5030924;28;20399;-78
2022/03/18 10:46:19;;;;;;;24.33;17.67;;;;;;;11.71;57.97;102525.34;5031330;28;20418;-79
2022/03/18 10:49:04;;;;;;;29.15;19.35;;;;;;;11.59;58.42;102528.81;5031595;28;20441;-78
2022/03/18 10:51:29;;;;;;;25.88;18.02;;;;;;;11.51;58.70;102527.09;5029423;28;20921;-79
2022/03/18 10:53:56;;;;;;;26.70;19.25;;;;;;;11.78;57.69;102528.09;5030821;28;20476;-79
2022/03/18 10:56:22;;;;;;;27.23;18.55;;;;;;;12.14;56.97;102519.66;5060449;28;20403;-79
2022/03/18 10:58:47;;;;;;;24.43;19.23;;;;;;;12.55;56.23;102516.78;5029918;28;20391;-79
2022/03/18 11:01:14;;;;;;;22.23;17.63;;;;;;;14.17;53.09;102507.59;5022160;28;20434;-80
2022/03/18 11:03:40;;;;;;;27.13;19.95;;;;;;;15.35;49.06;102526.56;5022009;28;20407;-79
2022/03/18 11:06:09;;;;;;;21.85;17.52;;;;;;;15.03;49.11;102530.47;5031317;28;20434;-78
2022/03/18 11:08:44;;;;;;;22.75;17.58;;;;;;;14.60;49.07;102521.38;5029490;28;20415;-80
2022/03/18 11:11:15;;;;;;;25.27;17.23;;;;;;;13.87;51.19;102527.25;5031335;28;20423;-80
2022/03/18 11:14:00;;;;;;;24.48;18.52;;;;;;;13.08;53.86;102517.59;5027361;28;20403;-80
2022/03/18 11:16:30;;;;;;;24.73;18.80;;;;;;;12.96;53.45;102528.31;5030761;28;21034;-80
2022/03/18 11:18:57;;;;;;;30.08;21.10;;;;;;;12.68;54.78;102524.97;5030445;28;20402;-79
2022/03/18 11:21:35;;;;;;;24.63;19.38;;;;;;;12.19;56.04;102520.69;5031334;28;20508;-80
2022/03/18 11:24:03;;;;;;;29.55;19.55;;;;;;;12.02;56.83;102527.53;5031222;28;20395;-81
2022/03/18 11:26:30;;;;;;;29.80;20.48;;;;;;;12.19;56.20;102522.56;5015617;28;20440;-79
2022/03/18 11:29:06;;;;;;;29.08;21.55;;;;;;;12.46;55.37;102522.44;5024244;28;20397;-80
2022/03/18 11:31:33;;;;;;;25.73;19.53;;;;;;;12.13;56.12;102526.13;5011617;28;20500;-79
2022/03/18 11:34:14;;;;;;;28.00;20.57;;;;;;;11.97;56.72;102511.03;5027632;28;20969;-80
2022/03/18 11:37:04;;;;;;;25.27;19.02;;;;;;;12.20;56.70;102516.09;5029977;28;20399;-79
2022/03/18 11:39:30;;;;;;;27.20;19.67;;;;;;;12.56;56.12;102515.72;5027558;28;20728;-78
2022/03/18 11:41:56;;;;;;;25.53;19.60;;;;;;;12.90;55.05;102507.38;5030414;28;20517;-80
2022/03/18 11:44:55;;;;;;;29.38;20.10;;;;;;;12.81;54.77;102505.91;5029211;28;20403;-79
2022/03/18 11:47:30;;;;;;;23.73;18.00;;;;;;;13.28;53.42;102504.81;5031119;28;20399;-79